createdAt,value
2018-06-27T00:00:14.600Z,0.00
2018-06-27T00:01:14.593Z,0.00
2018-06-27T00:02:14.558Z,0.00
2018-06-27T00:03:14.489Z,0.00
2018-06-27T00:04:14.467Z,0.00
2018-06-27T00:05:14.417Z,0.00
2018-06-27T00:06:14.382Z,0.00
2018-06-27T00:07:14.347Z,0.00
2018-06-27T00:08:14.325Z,0.00
2018-06-27T00:09:14.277Z,0.00
2018-06-27T00:10:14.245Z,0.00
2018-06-27T00:11:14.208Z,0.00
2018-06-27T00:12:14.174Z,0.00
2018-06-27T00:13:14.156Z,0.00
2018-06-27T00:14:14.125Z,0.00
2018-06-27T00:15:14.069Z,0.00
2018-06-27T00:16:14.051Z,0.00
2018-06-27T00:17:13.997Z,0.00
2018-06-27T00:18:13.986Z,0.00
2018-06-27T00:19:13.957Z,0.00
2018-06-27T00:20:13.891Z,0.00
2018-06-27T00:21:13.877Z,0.00
2018-06-27T00:22:13.837Z,0.00
2018-06-27T00:23:13.789Z,0.00
2018-06-27T00:24:13.751Z,0.00
2018-06-27T00:25:13.730Z,0.00
2018-06-27T00:26:13.693Z,0.00
2018-06-27T00:27:13.654Z,0.00
2018-06-27T00:28:13.620Z,0.00
2018-06-27T00:29:13.580Z,0.00
2018-06-27T00:30:13.549Z,0.00
2018-06-27T00:31:13.512Z,0.00
2018-06-27T00:32:13.471Z,0.00
2018-06-27T00:33:13.443Z,0.00
2018-06-27T00:34:13.419Z,0.00
2018-06-27T00:35:13.401Z,0.00
2018-06-27T00:36:13.343Z,0.00
2018-06-27T00:37:13.298Z,0.00
2018-06-27T00:38:13.266Z,0.00
2018-06-27T00:39:13.228Z,0.00
2018-06-27T00:40:13.200Z,0.00
2018-06-27T00:41:13.159Z,0.00
2018-06-27T00:42:13.126Z,0.00
2018-06-27T00:43:13.087Z,0.00
2018-06-27T00:44:13.052Z,0.00
2018-06-27T00:45:13.025Z,0.00
2018-06-27T00:46:12.993Z,0.00
2018-06-27T00:47:12.955Z,0.00
2018-06-27T00:48:12.919Z,0.00
2018-06-27T00:49:12.881Z,0.00
2018-06-27T00:50:12.843Z,0.00
2018-06-27T00:51:12.839Z,0.00
2018-06-27T00:52:12.771Z,0.00
2018-06-27T00:53:12.741Z,0.00
2018-06-27T00:54:12.715Z,0.00
2018-06-27T00:55:12.681Z,0.00
2018-06-27T00:56:12.632Z,0.00
2018-06-27T00:57:12.608Z,0.00
2018-06-27T00:58:12.568Z,0.00
2018-06-27T00:59:12.527Z,0.00
2018-06-27T01:00:12.502Z,0.00
2018-06-27T01:01:12.451Z,0.00
2018-06-27T01:02:12.419Z,0.00
2018-06-27T01:03:12.398Z,0.00
2018-06-27T01:04:12.355Z,0.00
2018-06-27T01:05:12.330Z,0.00
2018-06-27T01:06:12.303Z,0.00
2018-06-27T01:07:12.246Z,0.00
2018-06-27T01:08:12.204Z,0.00
2018-06-27T01:09:12.178Z,0.00
2018-06-27T01:10:12.143Z,0.00
2018-06-27T01:11:12.103Z,0.00
2018-06-27T01:12:12.069Z,0.00
2018-06-27T01:13:12.036Z,0.00
2018-06-27T01:14:12.000Z,0.00
2018-06-27T01:15:11.963Z,0.00
2018-06-27T01:16:11.934Z,0.00
2018-06-27T01:17:11.892Z,0.00
2018-06-27T01:18:11.854Z,0.00
2018-06-27T01:19:11.834Z,0.00
2018-06-27T01:20:11.805Z,0.00
2018-06-27T01:21:11.757Z,0.00
2018-06-27T01:22:11.715Z,0.00
2018-06-27T01:23:11.681Z,0.00
2018-06-27T01:24:11.652Z,0.00
2018-06-27T01:25:11.613Z,0.00
2018-06-27T01:26:11.575Z,0.00
2018-06-27T01:27:11.541Z,0.00
2018-06-27T01:28:11.506Z,0.00
2018-06-27T01:29:11.467Z,0.00
2018-06-27T01:30:11.435Z,0.00
2018-06-27T01:31:11.396Z,0.00
2018-06-27T01:32:11.359Z,0.00
2018-06-27T01:33:11.336Z,0.00
2018-06-27T01:34:11.311Z,0.00
2018-06-27T01:35:11.260Z,0.00
2018-06-27T01:36:11.226Z,0.00
2018-06-27T01:37:11.182Z,0.00
2018-06-27T01:38:11.156Z,0.00
2018-06-27T01:39:11.112Z,0.00
2018-06-27T01:40:11.075Z,0.00
2018-06-27T01:41:11.055Z,0.00
2018-06-27T01:42:11.009Z,0.00
2018-06-27T01:43:10.998Z,0.00
2018-06-27T01:44:10.933Z,0.00
2018-06-27T01:45:10.931Z,0.00
2018-06-27T01:46:10.893Z,0.00
2018-06-27T01:47:10.834Z,0.00
2018-06-27T01:48:10.798Z,0.00
2018-06-27T01:49:10.754Z,0.00
2018-06-27T01:50:10.754Z,0.00
2018-06-27T01:51:10.687Z,0.00
2018-06-27T01:52:10.648Z,0.00
2018-06-27T01:53:10.620Z,0.00
2018-06-27T01:54:10.589Z,0.00
2018-06-27T01:55:10.558Z,0.00
2018-06-27T01:56:10.514Z,0.00
2018-06-27T01:57:10.473Z,0.00
2018-06-27T01:58:10.441Z,0.00
2018-06-27T01:59:10.405Z,0.00
2018-06-27T02:00:10.376Z,0.00
2018-06-27T02:01:10.330Z,0.00
2018-06-27T02:02:10.313Z,0.00
2018-06-27T02:03:10.267Z,0.00
2018-06-27T02:04:10.252Z,0.00
2018-06-27T02:05:10.201Z,0.00
2018-06-27T02:06:10.171Z,0.00
2018-06-27T02:07:10.143Z,0.00
2018-06-27T02:08:10.090Z,0.00
2018-06-27T02:09:10.052Z,0.00
2018-06-27T02:10:10.013Z,0.00
2018-06-27T02:11:09.977Z,0.00
2018-06-27T02:12:09.950Z,0.00
2018-06-27T02:13:09.909Z,0.00
2018-06-27T02:14:09.882Z,0.00
2018-06-27T02:15:09.839Z,0.00
2018-06-27T02:16:09.798Z,0.00
2018-06-27T02:17:09.772Z,0.00
2018-06-27T02:18:09.764Z,0.00
2018-06-27T02:19:09.699Z,0.00
2018-06-27T02:20:09.671Z,0.00
2018-06-27T02:21:09.622Z,0.00
2018-06-27T02:22:09.590Z,0.00
2018-06-27T02:23:09.559Z,0.00
2018-06-27T02:24:09.513Z,0.00
2018-06-27T02:25:09.498Z,0.00
2018-06-27T02:26:09.447Z,0.00
2018-06-27T02:27:09.410Z,0.00
2018-06-27T02:28:09.381Z,0.00
2018-06-27T02:29:09.337Z,0.00
2018-06-27T02:30:09.314Z,0.00
2018-06-27T02:31:09.337Z,0.00
2018-06-27T02:32:09.240Z,0.00
2018-06-27T02:33:09.196Z,0.00
2018-06-27T02:34:09.178Z,0.00
2018-06-27T02:35:09.124Z,0.00
2018-06-27T02:36:09.086Z,0.00
2018-06-27T02:37:09.066Z,0.00
2018-06-27T02:38:09.044Z,0.00
2018-06-27T02:39:08.984Z,0.00
2018-06-27T02:40:08.949Z,0.00
2018-06-27T02:41:08.916Z,0.00
2018-06-27T02:42:08.877Z,0.00
2018-06-27T02:43:08.844Z,0.00
2018-06-27T02:44:08.807Z,0.00
2018-06-27T02:45:08.791Z,0.00
2018-06-27T02:46:08.755Z,0.00
2018-06-27T02:47:08.726Z,0.00
2018-06-27T02:48:08.662Z,0.00
2018-06-27T02:49:08.689Z,0.00
2018-06-27T02:50:08.628Z,0.00
2018-06-27T02:51:08.560Z,0.00
2018-06-27T02:52:08.522Z,0.00
2018-06-27T02:53:08.515Z,0.00
2018-06-27T02:54:08.452Z,0.00
2018-06-27T02:55:08.434Z,0.00
2018-06-27T02:56:08.372Z,0.00
2018-06-27T02:57:08.358Z,0.00
2018-06-27T02:58:08.305Z,0.00
2018-06-27T02:59:08.271Z,0.00
2018-06-27T03:00:08.240Z,0.00
2018-06-27T03:01:08.193Z,0.00
2018-06-27T03:02:08.193Z,0.00
2018-06-27T03:03:08.126Z,0.00
2018-06-27T03:04:08.108Z,0.00
2018-06-27T03:05:08.049Z,0.00
2018-06-27T03:06:08.045Z,0.00
2018-06-27T03:07:07.981Z,0.00
2018-06-27T03:08:07.944Z,0.00
2018-06-27T03:09:07.915Z,0.00
2018-06-27T03:10:07.889Z,0.00
2018-06-27T03:11:07.846Z,0.00
2018-06-27T03:12:07.811Z,0.00
2018-06-27T03:13:07.791Z,0.00
2018-06-27T03:14:07.739Z,0.00
2018-06-27T03:15:07.695Z,0.00
2018-06-27T03:16:07.659Z,0.00
2018-06-27T03:17:07.644Z,0.00
2018-06-27T03:18:07.590Z,0.00
2018-06-27T03:19:07.554Z,0.00
2018-06-27T03:20:07.524Z,5.63
2018-06-27T03:21:07.492Z,5.63
2018-06-27T03:22:07.484Z,5.63
2018-06-27T03:23:07.416Z,5.63
2018-06-27T03:24:07.380Z,5.63
2018-06-27T03:25:07.385Z,5.63
2018-06-27T03:26:07.303Z,5.63
2018-06-27T03:27:07.270Z,5.63
2018-06-27T03:28:07.272Z,5.63
2018-06-27T03:29:07.243Z,5.63
2018-06-27T03:30:07.158Z,11.25
2018-06-27T03:31:07.131Z,11.25
2018-06-27T03:32:07.091Z,11.25
2018-06-27T03:33:07.052Z,11.25
2018-06-27T03:34:07.015Z,11.25
2018-06-27T03:35:06.983Z,11.25
2018-06-27T03:36:06.950Z,11.25
2018-06-27T03:37:06.932Z,16.88
2018-06-27T03:38:06.874Z,16.88
2018-06-27T03:39:06.838Z,16.88
2018-06-27T03:40:06.812Z,16.88
2018-06-27T03:41:06.801Z,16.88
2018-06-27T03:42:06.738Z,16.88
2018-06-27T03:43:06.800Z,22.50
2018-06-27T03:44:06.670Z,22.50
2018-06-27T03:45:06.622Z,22.50
2018-06-27T03:46:06.587Z,22.50
2018-06-27T03:47:06.553Z,28.13
2018-06-27T03:48:06.515Z,28.13
2018-06-27T03:49:06.486Z,28.13
2018-06-27T03:50:06.447Z,28.13
2018-06-27T03:51:06.401Z,28.13
2018-06-27T04:08:16.151Z,50.63
2018-06-27T04:09:16.097Z,56.25
2018-06-27T04:10:16.037Z,56.25
2018-06-27T04:11:16.032Z,56.25
2018-06-27T04:12:15.959Z,56.25
2018-06-27T04:13:15.968Z,56.25
2018-06-27T04:14:15.875Z,61.88
2018-06-27T04:15:15.842Z,61.88
2018-06-27T04:16:15.797Z,61.88
2018-06-27T04:17:15.772Z,61.88
2018-06-27T04:18:15.731Z,67.50
2018-06-27T04:19:15.689Z,67.50
2018-06-27T04:20:15.706Z,67.50
2018-06-27T04:21:15.619Z,67.50
2018-06-27T04:22:15.580Z,67.50
2018-06-27T04:23:15.550Z,67.50
2018-06-27T04:24:15.517Z,67.50
2018-06-27T04:25:15.463Z,67.50
2018-06-27T04:26:15.429Z,67.50
2018-06-27T04:27:15.391Z,73.13
2018-06-27T04:28:15.351Z,73.13
2018-06-27T04:29:15.324Z,73.13
2018-06-27T04:30:15.288Z,73.13
2018-06-27T04:31:15.249Z,78.75
2018-06-27T04:32:15.214Z,78.75
2018-06-27T04:33:15.173Z,78.75
2018-06-27T04:34:15.138Z,78.75
2018-06-27T04:35:15.112Z,78.75
2018-06-27T04:36:15.084Z,84.38
2018-06-27T04:37:15.036Z,84.38
2018-06-27T04:38:14.999Z,84.38
2018-06-27T04:39:14.959Z,84.38
2018-06-27T04:40:14.920Z,90.00
2018-06-27T04:41:14.925Z,90.00
2018-06-27T04:42:14.853Z,90.00
2018-06-27T04:43:14.878Z,90.00
2018-06-27T04:44:14.787Z,90.00
2018-06-27T04:45:14.740Z,95.63
2018-06-27T04:46:14.713Z,95.63
2018-06-27T04:47:14.683Z,95.63
2018-06-27T04:48:14.638Z,95.63
2018-06-27T04:49:14.612Z,101.25
2018-06-27T04:50:14.583Z,101.25
2018-06-27T04:51:14.534Z,101.25
2018-06-27T04:52:14.504Z,101.25
2018-06-27T04:53:14.457Z,101.25
2018-06-27T04:54:14.430Z,106.88
2018-06-27T04:55:14.393Z,106.88
2018-06-27T04:56:14.356Z,106.88
2018-06-27T04:57:14.320Z,106.88
2018-06-27T04:58:14.285Z,106.88
2018-06-27T04:59:14.251Z,112.50
2018-06-27T05:00:14.215Z,112.50
2018-06-27T05:01:14.184Z,112.50
2018-06-27T05:02:14.150Z,112.50
2018-06-27T05:03:14.112Z,118.13
2018-06-27T05:04:14.097Z,118.13
2018-06-27T05:05:14.039Z,118.13
2018-06-27T05:06:14.003Z,118.13
2018-06-27T05:07:13.968Z,118.13
2018-06-27T05:08:13.938Z,123.75
2018-06-27T05:09:13.905Z,123.75
2018-06-27T05:10:13.869Z,123.75
2018-06-27T05:11:13.831Z,123.75
2018-06-27T05:12:13.800Z,123.75
2018-06-27T05:13:13.772Z,123.75
2018-06-27T05:14:13.764Z,123.75
2018-06-27T05:15:13.690Z,123.75
2018-06-27T05:16:13.660Z,123.75
2018-06-27T05:17:13.629Z,129.38
2018-06-27T05:18:13.592Z,129.38
2018-06-27T05:19:13.553Z,129.38
2018-06-27T05:20:13.535Z,129.38
2018-06-27T05:21:13.521Z,129.38
2018-06-27T05:22:13.447Z,135.00
2018-06-27T05:23:13.416Z,135.00
2018-06-27T05:24:13.385Z,135.00
2018-06-27T05:25:13.345Z,135.00
2018-06-27T05:26:13.310Z,135.00
2018-06-27T05:27:13.282Z,140.63
2018-06-27T05:28:13.245Z,140.63
2018-06-27T05:29:13.206Z,140.63
2018-06-27T05:30:13.172Z,140.63
2018-06-27T05:31:13.140Z,146.25
2018-06-27T05:32:13.106Z,146.25
2018-06-27T05:33:13.072Z,146.25
2018-06-27T05:34:13.037Z,146.25
2018-06-27T05:35:13.024Z,146.25
2018-06-27T05:36:12.972Z,151.88
2018-06-27T05:37:12.931Z,151.88
2018-06-27T05:38:12.904Z,151.88
2018-06-27T05:39:12.880Z,151.88
2018-06-27T05:40:12.828Z,151.88
2018-06-27T05:41:12.801Z,157.50
2018-06-27T05:42:12.768Z,157.50
2018-06-27T05:43:12.757Z,157.50
2018-06-27T05:44:12.776Z,157.50
2018-06-27T05:45:12.675Z,157.50
2018-06-27T05:46:12.632Z,163.13
2018-06-27T05:47:12.602Z,163.13
2018-06-27T05:48:12.565Z,163.13
2018-06-27T05:49:12.523Z,163.13
2018-06-27T05:50:12.496Z,163.13
2018-06-27T05:51:12.465Z,168.75
2018-06-27T05:52:12.429Z,168.75
2018-06-27T05:53:12.401Z,168.75
2018-06-27T05:54:12.363Z,168.75
2018-06-27T05:55:12.331Z,168.75
2018-06-27T05:56:12.297Z,168.75
2018-06-27T05:57:12.266Z,168.75
2018-06-27T05:58:12.309Z,168.75
2018-06-27T05:59:12.195Z,174.38
2018-06-27T06:00:12.163Z,174.38
2018-06-27T06:01:12.124Z,168.75
2018-06-27T06:02:12.098Z,168.75
2018-06-27T06:03:12.061Z,174.38
2018-06-27T06:04:12.050Z,174.38
2018-06-27T06:05:11.997Z,180.00
2018-06-27T06:06:11.964Z,180.00
2018-06-27T06:07:11.929Z,174.38
2018-06-27T06:08:11.910Z,174.38
2018-06-27T06:09:11.866Z,180.00
2018-06-27T06:10:11.828Z,180.00
2018-06-27T06:11:11.816Z,180.00
2018-06-27T06:12:11.766Z,185.63
2018-06-27T06:13:11.732Z,180.00
2018-06-27T06:14:11.699Z,180.00
2018-06-27T06:15:11.664Z,185.63
2018-06-27T06:16:11.628Z,185.63
2018-06-27T06:17:11.609Z,185.63
2018-06-27T06:18:11.567Z,185.63
2018-06-27T06:19:11.535Z,185.63
2018-06-27T06:20:11.508Z,185.63
2018-06-27T06:21:11.466Z,191.25
2018-06-27T06:22:11.438Z,191.25
2018-06-27T06:23:11.410Z,191.25
2018-06-27T06:24:11.369Z,191.25
2018-06-27T06:25:11.345Z,191.25
2018-06-27T06:26:11.314Z,196.88
2018-06-27T06:27:11.275Z,196.88
2018-06-27T06:28:11.243Z,196.88
2018-06-27T06:29:11.207Z,196.88
2018-06-27T06:30:11.171Z,196.88
2018-06-27T06:31:11.156Z,196.88
2018-06-27T06:32:11.118Z,202.50
2018-06-27T06:33:11.071Z,202.50
2018-06-27T06:34:11.071Z,202.50
2018-06-27T06:35:11.011Z,202.50
2018-06-27T06:36:10.979Z,202.50
2018-06-27T06:37:10.954Z,202.50
2018-06-27T06:38:10.920Z,208.13
2018-06-27T06:39:10.891Z,208.13
2018-06-27T06:40:10.875Z,208.13
2018-06-27T06:41:10.820Z,208.13
2018-06-27T06:42:10.785Z,202.50
2018-06-27T06:43:10.760Z,208.13
2018-06-27T06:44:10.724Z,208.13
2018-06-27T06:45:10.699Z,208.13
2018-06-27T06:46:10.712Z,208.13
2018-06-27T06:47:10.627Z,208.13
2018-06-27T06:48:10.591Z,213.75
2018-06-27T06:49:10.594Z,213.75
2018-06-27T06:50:10.532Z,213.75
2018-06-27T06:51:10.501Z,213.75
2018-06-27T06:52:10.516Z,213.75
2018-06-27T06:53:10.432Z,213.75
2018-06-27T06:54:10.415Z,213.75
2018-06-27T06:55:10.373Z,213.75
2018-06-27T06:56:10.368Z,219.38
2018-06-27T06:57:10.317Z,219.38
2018-06-27T06:58:10.279Z,219.38
2018-06-27T06:59:10.253Z,219.38
2018-06-27T07:00:10.217Z,219.38
2018-06-27T07:01:10.186Z,219.38
2018-06-27T07:02:10.148Z,219.38
2018-06-27T07:03:10.124Z,219.38
2018-06-27T07:04:10.099Z,219.38
2018-06-27T07:05:10.080Z,219.38
2018-06-27T07:06:10.022Z,225.00
2018-06-27T07:07:10.406Z,230.63
2018-06-27T07:08:09.957Z,225.00
2018-06-27T07:09:09.931Z,230.63
2018-06-27T07:10:09.899Z,230.63
2018-06-27T07:11:09.937Z,230.63
2018-06-27T07:12:09.841Z,230.63
2018-06-27T07:13:09.799Z,225.00
2018-06-27T07:14:09.773Z,225.00
2018-06-27T07:15:09.740Z,225.00
2018-06-27T07:16:09.711Z,225.00
2018-06-27T07:17:09.692Z,225.00
2018-06-27T07:18:09.653Z,225.00
2018-06-27T07:19:09.615Z,225.00
2018-06-27T07:20:09.626Z,236.25
2018-06-27T07:21:09.555Z,230.63
2018-06-27T07:22:09.534Z,230.63
2018-06-27T07:23:09.497Z,230.63
2018-06-27T07:24:09.469Z,230.63
2018-06-27T07:25:09.432Z,230.63
2018-06-27T07:26:09.403Z,230.63
2018-06-27T07:27:09.372Z,230.63
2018-06-27T07:28:09.337Z,230.63
2018-06-27T07:29:09.307Z,230.63
2018-06-27T07:30:09.276Z,230.63
2018-06-27T07:31:09.249Z,230.63
2018-06-27T07:32:09.217Z,230.63
2018-06-27T07:33:09.178Z,230.63
2018-06-27T07:34:09.152Z,230.63
2018-06-27T07:35:09.137Z,230.63
2018-06-27T07:36:09.095Z,230.63
2018-06-27T07:37:09.060Z,230.63
2018-06-27T07:38:09.032Z,230.63
2018-06-27T07:39:09.013Z,230.63
2018-06-27T07:40:08.962Z,230.63
2018-06-27T07:41:08.942Z,230.63
2018-06-27T07:42:08.930Z,230.63
2018-06-27T07:43:08.874Z,230.63
2018-06-27T07:44:08.848Z,225.00
2018-06-27T07:45:08.813Z,230.63
2018-06-27T07:46:08.780Z,230.63
2018-06-27T07:47:08.749Z,230.63
2018-06-27T07:48:08.720Z,230.63
2018-06-27T07:49:08.695Z,230.63
2018-06-27T07:50:08.660Z,230.63
2018-06-27T07:51:08.647Z,230.63
2018-06-27T07:52:08.598Z,225.00
2018-06-27T07:53:08.574Z,225.00
2018-06-27T07:54:08.545Z,225.00
2018-06-27T07:55:08.526Z,225.00
2018-06-27T07:56:08.479Z,225.00
2018-06-27T07:57:08.447Z,225.00
2018-06-27T07:58:08.411Z,225.00
2018-06-27T07:59:08.383Z,225.00
2018-06-27T08:00:08.349Z,225.00
2018-06-27T08:01:08.333Z,225.00
2018-06-27T08:02:08.299Z,225.00
2018-06-27T08:03:08.261Z,225.00
2018-06-27T08:04:08.241Z,225.00
2018-06-27T08:05:08.207Z,225.00
2018-06-27T08:06:08.197Z,225.00
2018-06-27T08:07:08.146Z,225.00
2018-06-27T08:08:08.116Z,225.00
2018-06-27T08:09:08.080Z,225.00
2018-06-27T08:10:08.051Z,225.00
2018-06-27T08:11:08.018Z,225.00
2018-06-27T08:12:07.986Z,225.00
2018-06-27T08:13:07.977Z,225.00
2018-06-27T08:14:07.931Z,225.00
2018-06-27T08:15:07.901Z,225.00
2018-06-27T08:16:07.871Z,225.00
2018-06-27T08:17:07.860Z,225.00
2018-06-27T08:18:07.883Z,225.00
2018-06-27T08:19:07.777Z,225.00
2018-06-27T08:20:07.755Z,225.00
2018-06-27T08:21:07.710Z,225.00
2018-06-27T08:22:07.712Z,225.00
2018-06-27T08:23:07.670Z,225.00
2018-06-27T08:24:07.630Z,225.00
2018-06-27T08:25:07.596Z,225.00
2018-06-27T08:26:07.631Z,225.00
2018-06-27T08:27:07.542Z,225.00
2018-06-27T08:28:07.508Z,225.00
2018-06-27T08:29:07.483Z,225.00
2018-06-27T08:30:07.461Z,225.00
2018-06-27T08:31:07.416Z,225.00
2018-06-27T08:32:07.402Z,225.00
2018-06-27T08:33:07.351Z,225.00
2018-06-27T08:34:07.322Z,225.00
2018-06-27T08:35:07.298Z,225.00
2018-06-27T08:36:07.260Z,225.00
2018-06-27T08:37:07.237Z,225.00
2018-06-27T08:38:07.208Z,225.00
2018-06-27T08:39:07.179Z,225.00
2018-06-27T08:40:07.140Z,225.00
2018-06-27T08:41:07.125Z,225.00
2018-06-27T08:42:07.082Z,225.00
2018-06-27T08:43:07.064Z,225.00
2018-06-27T08:44:07.026Z,225.00
2018-06-27T08:45:07.007Z,225.00
2018-06-27T08:46:06.963Z,225.00
2018-06-27T08:47:06.938Z,225.00
2018-06-27T08:48:06.898Z,225.00
2018-06-27T08:49:06.881Z,225.00
2018-06-27T08:50:06.850Z,225.00
2018-06-27T08:51:06.818Z,225.00
2018-06-27T08:52:06.785Z,225.00
2018-06-27T08:53:06.753Z,225.00
2018-06-27T08:54:06.722Z,225.00
2018-06-27T08:55:06.703Z,225.00
2018-06-27T08:56:06.696Z,225.00
2018-06-27T08:57:06.629Z,225.00
2018-06-27T08:58:06.607Z,225.00
2018-06-27T08:59:06.578Z,225.00
2018-06-27T09:00:06.542Z,225.00
2018-06-27T09:01:06.525Z,225.00
2018-06-27T09:02:06.492Z,225.00
2018-06-27T09:03:06.478Z,225.00
2018-06-27T09:04:06.427Z,225.00
2018-06-27T09:05:06.400Z,225.00
2018-06-27T09:06:06.365Z,225.00
2018-06-27T09:07:06.333Z,225.00
2018-06-27T09:08:06.299Z,225.00
2018-06-27T09:09:06.283Z,225.00
2018-06-27T09:10:06.266Z,225.00
2018-06-27T09:11:06.226Z,225.00
2018-06-27T09:12:06.181Z,225.00
2018-06-27T09:13:06.155Z,225.00
2018-06-27T09:14:06.130Z,225.00
2018-06-27T09:15:06.095Z,225.00
2018-06-27T09:16:06.073Z,225.00
2018-06-27T09:17:06.031Z,225.00
2018-06-27T09:18:06.007Z,225.00
2018-06-27T09:19:05.977Z,225.00
2018-06-27T09:20:05.944Z,225.00
2018-06-27T09:21:05.922Z,225.00
2018-06-27T09:22:05.888Z,225.00
2018-06-27T09:23:05.863Z,225.00
2018-06-27T09:24:05.828Z,225.00
2018-06-27T09:25:05.792Z,225.00
2018-06-27T09:26:05.767Z,225.00
2018-06-27T09:27:05.743Z,225.00
2018-06-27T09:28:05.737Z,225.00
2018-06-27T09:29:05.672Z,225.00
2018-06-27T09:30:05.649Z,225.00
2018-06-27T09:31:05.652Z,225.00
2018-06-27T09:32:05.586Z,225.00
2018-06-27T09:33:05.560Z,225.00
2018-06-27T09:34:05.571Z,225.00
2018-06-27T09:35:05.527Z,225.00
2018-06-27T09:36:05.478Z,225.00
2018-06-27T09:37:05.436Z,225.00
2018-06-27T09:38:05.417Z,225.00
2018-06-27T09:39:05.381Z,225.00
2018-06-27T09:40:05.348Z,225.00
2018-06-27T09:41:05.327Z,225.00
2018-06-27T09:42:05.397Z,225.00
2018-06-27T09:43:05.265Z,225.00
2018-06-27T09:44:05.231Z,225.00
2018-06-27T09:45:05.223Z,225.00
2018-06-27T09:46:05.185Z,225.00
2018-06-27T09:47:05.149Z,225.00
2018-06-27T09:48:05.140Z,219.38
2018-06-27T09:49:05.090Z,219.38
2018-06-27T09:50:05.053Z,225.00
2018-06-27T09:51:05.028Z,225.00
2018-06-27T09:52:04.992Z,225.00
2018-06-27T09:53:04.979Z,225.00
2018-06-27T09:54:04.950Z,219.38
2018-06-27T09:55:04.915Z,225.00
2018-06-27T09:56:04.897Z,225.00
2018-06-27T09:57:04.878Z,225.00
2018-06-27T09:58:04.819Z,225.00
2018-06-27T09:59:04.795Z,225.00
2018-06-27T10:00:04.764Z,225.00
2018-06-27T10:01:04.738Z,225.00
2018-06-27T10:02:04.712Z,225.00
2018-06-27T10:03:04.671Z,225.00
2018-06-27T10:04:04.644Z,225.00
2018-06-27T10:05:04.619Z,225.00
2018-06-27T10:06:04.607Z,219.38
2018-06-27T10:07:04.557Z,219.38
2018-06-27T10:08:04.540Z,225.00
2018-06-27T10:21:46.247Z,219.38
2018-06-27T10:22:46.259Z,219.38
2018-06-27T10:23:46.114Z,219.38
2018-06-27T10:24:46.085Z,219.38
2018-06-27T10:25:46.058Z,219.38
2018-06-27T10:26:46.008Z,219.38
2018-06-27T10:27:45.980Z,219.38
2018-06-27T10:28:45.953Z,219.38
2018-06-27T10:29:45.922Z,219.38
2018-06-27T10:30:45.894Z,219.38
2018-06-27T10:31:45.856Z,219.38
2018-06-27T10:32:45.823Z,225.00
2018-06-27T10:33:45.792Z,219.38
2018-06-27T10:34:45.766Z,219.38
2018-06-27T10:35:45.772Z,219.38
2018-06-27T10:36:45.704Z,219.38
2018-06-27T10:37:45.689Z,219.38
2018-06-27T10:38:45.686Z,219.38
2018-06-27T10:39:45.634Z,219.38
2018-06-27T10:40:45.603Z,219.38
2018-06-27T10:41:45.547Z,219.38
2018-06-27T10:42:45.543Z,219.38
2018-06-27T10:43:45.496Z,219.38
2018-06-27T10:44:45.490Z,225.00
2018-06-27T10:45:45.429Z,225.00
2018-06-27T10:46:45.412Z,219.38
2018-06-27T10:47:45.385Z,219.38
2018-06-27T10:48:45.356Z,219.38
2018-06-27T10:49:45.320Z,225.00
2018-06-27T10:50:45.316Z,225.00
2018-06-27T10:51:45.263Z,225.00
2018-06-27T10:52:45.230Z,225.00
2018-06-27T10:53:45.194Z,225.00
2018-06-27T10:54:45.163Z,219.38
2018-06-27T10:55:45.149Z,219.38
2018-06-27T10:56:45.114Z,219.38
2018-06-27T10:57:45.086Z,219.38
2018-06-27T10:58:45.074Z,225.00
2018-06-27T10:59:45.033Z,219.38
2018-06-27T11:00:45.000Z,225.00
2018-06-27T11:01:44.973Z,225.00
2018-06-27T11:02:44.962Z,225.00
2018-06-27T11:03:44.906Z,225.00
2018-06-27T11:04:44.883Z,225.00
2018-06-27T11:05:44.843Z,225.00
2018-06-27T11:06:44.819Z,225.00
2018-06-27T11:07:44.793Z,225.00
2018-06-27T11:08:44.770Z,225.00
2018-06-27T11:09:44.740Z,225.00
2018-06-27T11:10:44.708Z,225.00
2018-06-27T11:11:44.675Z,225.00
2018-06-27T11:12:44.673Z,225.00
2018-06-27T11:13:44.614Z,225.00
2018-06-27T11:14:44.587Z,225.00
2018-06-27T11:15:44.582Z,225.00
2018-06-27T11:16:44.526Z,225.00
2018-06-27T11:17:44.513Z,225.00
2018-06-27T11:18:44.467Z,225.00
2018-06-27T11:19:44.437Z,225.00
2018-06-27T11:20:44.427Z,225.00
2018-06-27T11:21:44.388Z,225.00
2018-06-27T11:22:44.355Z,225.00
2018-06-27T11:23:44.325Z,225.00
2018-06-27T11:24:44.296Z,225.00
2018-06-27T11:25:44.274Z,230.63
2018-06-27T11:26:44.239Z,230.63
2018-06-27T11:27:44.223Z,230.63
2018-06-27T11:28:44.185Z,230.63
2018-06-27T11:29:44.157Z,225.00
2018-06-27T11:30:44.120Z,225.00
2018-06-27T11:31:44.094Z,225.00
2018-06-27T11:32:44.071Z,225.00
2018-06-27T11:33:44.041Z,225.00
2018-06-27T11:34:44.012Z,225.00
2018-06-27T11:35:43.981Z,225.00
2018-06-27T11:36:43.950Z,225.00
2018-06-27T11:37:43.924Z,225.00
2018-06-27T11:38:43.928Z,225.00
2018-06-27T11:39:43.865Z,225.00
2018-06-27T11:40:43.844Z,225.00
2018-06-27T11:41:43.822Z,225.00
2018-06-27T11:42:43.786Z,225.00
2018-06-27T11:43:43.754Z,225.00
2018-06-27T11:44:43.723Z,225.00
2018-06-27T11:45:43.701Z,225.00
2018-06-27T11:46:43.673Z,225.00
2018-06-27T11:47:43.637Z,225.00
2018-06-27T11:48:43.611Z,230.63
2018-06-27T11:49:43.584Z,225.00
2018-06-27T11:50:43.555Z,225.00
2018-06-27T11:51:43.522Z,225.00
2018-06-27T11:52:43.502Z,225.00
2018-06-27T11:53:43.473Z,230.63
2018-06-27T11:54:43.443Z,230.63
2018-06-27T11:55:43.415Z,225.00
2018-06-27T11:56:43.382Z,225.00
2018-06-27T11:57:43.356Z,225.00
2018-06-27T11:58:43.323Z,225.00
2018-06-27T11:59:43.295Z,225.00
2018-06-27T12:00:43.271Z,225.00
2018-06-27T12:01:43.255Z,225.00
2018-06-27T12:02:43.204Z,225.00
2018-06-27T12:03:43.185Z,225.00
2018-06-27T12:04:43.152Z,230.63
2018-06-27T12:05:43.137Z,225.00
2018-06-27T12:06:43.108Z,225.00
2018-06-27T12:07:43.097Z,225.00
2018-06-27T12:08:43.036Z,225.00
2018-06-27T12:09:43.006Z,225.00
2018-06-27T12:10:42.981Z,225.00
2018-06-27T12:11:42.951Z,225.00
2018-06-27T12:12:42.923Z,225.00
2018-06-27T12:13:42.899Z,225.00
2018-06-27T12:14:42.872Z,230.63
2018-06-27T12:15:42.840Z,230.63
2018-06-27T12:16:42.809Z,236.25
2018-06-27T12:17:42.781Z,236.25
2018-06-27T12:18:42.769Z,236.25
2018-06-27T12:19:42.725Z,241.88
2018-06-27T12:20:42.697Z,247.50
2018-06-27T12:21:42.666Z,247.50
2018-06-27T12:22:42.633Z,247.50
2018-06-27T12:23:42.609Z,247.50
2018-06-27T12:24:42.594Z,241.88
2018-06-27T12:25:42.562Z,241.88
2018-06-27T12:26:42.531Z,247.50
2018-06-27T12:27:42.497Z,247.50
2018-06-27T12:28:42.467Z,253.13
2018-06-27T12:29:42.449Z,264.38
2018-06-27T12:30:42.405Z,264.38
2018-06-27T12:31:42.386Z,253.13
2018-06-27T12:32:42.358Z,247.50
2018-06-27T12:33:42.335Z,247.50
2018-06-27T12:34:42.297Z,247.50
2018-06-27T12:35:42.269Z,253.13
2018-06-27T12:36:42.247Z,247.50
2018-06-27T12:37:42.221Z,253.13
2018-06-27T12:38:42.269Z,174.38
2018-06-27T12:39:42.157Z,270.00
2018-06-27T12:40:42.151Z,247.50
2018-06-27T12:41:42.096Z,174.38
2018-06-27T12:42:42.074Z,174.38
2018-06-27T12:43:42.046Z,275.63
2018-06-27T12:44:42.017Z,191.25
2018-06-27T12:45:42.009Z,202.50
2018-06-27T12:46:41.976Z,163.13
2018-06-27T12:47:41.934Z,163.13
2018-06-27T12:48:41.903Z,163.13
2018-06-27T12:49:41.934Z,219.38
2018-06-27T12:50:41.855Z,236.25
2018-06-27T12:51:41.841Z,281.25
2018-06-27T12:52:41.801Z,292.50
2018-06-27T12:53:41.764Z,298.13
2018-06-27T12:54:41.736Z,298.13
2018-06-27T12:55:41.726Z,303.75
2018-06-27T12:56:41.682Z,309.38
2018-06-27T12:57:41.655Z,320.63
2018-06-27T12:58:41.648Z,320.63
2018-06-27T12:59:41.647Z,315.00
2018-06-27T13:00:41.566Z,219.38
2018-06-27T13:01:41.536Z,219.38
2018-06-27T13:02:41.512Z,225.00
2018-06-27T13:03:41.482Z,219.38
2018-06-27T13:04:41.458Z,258.75
2018-06-27T13:05:41.434Z,196.88
2018-06-27T13:06:41.401Z,191.25
2018-06-27T13:07:41.371Z,185.63
2018-06-27T13:08:41.365Z,258.75
2018-06-27T13:09:41.323Z,196.88
2018-06-27T13:10:41.328Z,191.25
2018-06-27T13:11:41.266Z,191.25